This is the latest recevied weather packets stored in our database for station/object CW79215. If no packets are shown the sender has not sent any weather packets the latest 10 day(s).
| Time | Temp. | Humidity | Pressure | Rain* | Wind** | Luminosity | Snow |
|---|---|---|---|---|---|---|---|
| 1777829832 | 18.89° C | 36% | 1019 hPa | - | - | - | - |
| 1777828932 | 18.89° C | 35% | 1019.1 hPa | - | - | - | - |
| 1777828032 | 19.44° C | 35% | 1019.1 hPa | - | - | - | - |
| 1777827132 | 19.44° C | 34% | 1018.9 hPa | - | - | - | - |
| 1777826232 | 19.44° C | 34% | 1018.9 hPa | - | - | - | - |
| 1777825332 | 20° C | 32% | 1018.8 hPa | - | - | - | - |
| 1777824432 | 20.56° C | 32% | 1018.8 hPa | - | - | - | - |
| 1777823532 | 21.11° C | 31% | 1018.7 hPa | - | - | - | - |
| 1777822632 | 21.67° C | 31% | 1018.5 hPa | - | - | - | - |
| 1777821732 | 21.67° C | 29% | 1018.5 hPa | - | - | - | - |
| 1777820832 | 22.22° C | 28% | 1018.4 hPa | - | - | - | - |
| 1777819932 | 22.78° C | 26% | 1017.9 hPa | - | - | - | - |
| 1777819032 | 23.33° C | 28% | 1017.7 hPa | - | - | - | - |
| 1777818131 | 24.44° C | 25% | 1017.6 hPa | - | - | - | - |
| 1777817231 | 24.44° C | 28% | 1017.6 hPa | - | - | - | - |
| 1777816331 | 25° C | 26% | 1017.5 hPa | - | - | - | - |
| 1777815431 | 24.44° C | 30% | 1017.8 hPa | - | - | - | - |
| 1777814531 | 25° C | 28% | 1017.9 hPa | - | - | - | - |
| 1777813631 | 25.56° C | 27% | 1018 hPa | - | - | - | - |
| 1777812731 | 25° C | 27% | 1017.9 hPa | - | - | - | - |
| 1777811831 | 25° C | 28% | 1018 hPa | - | - | - | - |
| 1777810931 | 24.44° C | 30% | 1018 hPa | - | - | - | - |
| 1777810031 | 23.33° C | 34% | 1018.2 hPa | - | - | - | - |
| 1777809131 | 23.33° C | 34% | 1018.3 hPa | - | - | - | - |
| 1777808231 | 23.33° C | 36% | 1018.3 hPa | - | - | - | - |
* Rain since midnight (hover to see other rain measurements)
** Current wind speed in m/s (hover to see current wind gust speed)